ADDS METAR Data INFO
IDs: Format: Raw Decoded Include TAF

Data at: 0338 UTC 28 Jun 2017

KHIE 280329Z AUTO 00000KT 2 1/2SM BR FEW001 SCT080 10/08 A2995 RMK AO2 T01000083
KHIE 280320Z AUTO 00000KT 1SM BR FEW001 SCT085 09/08 A2994 RMK AO2 VIS 1/2V5 T00940083
KHIE 280315Z AUTO 35003KT 2 1/2SM BR FEW001 BKN085 10/09 A2994 RMK AO2 T01000089
KHIE 280252Z AUTO 00000KT 9SM SCT085 11/09 A2994 RMK AO2 SLP140 60004 T01060089 50016
KHIE 280152Z AUTO 00000KT 10SM FEW037 BKN070 12/10 A2994 RMK AO2 RAE16 SLP140 P0003 T01170100
KHIE 280110Z AUTO 00000KT 8SM -RA FEW029 SCT038 OVC050 12/10 A2993 RMK AO2 LTG DSNT SE P0003 T01220100
KHIE 280052Z AUTO 28012G19KT 10SM VCTS -RA FEW028 SCT039 OVC070 13/11 A2992 RMK AO2 LTG DSNT SE AND S AND NW RAB29 SLP134 P0001 T01330106
KHIE 272352Z AUTO 04003KT 10SM SCT095 16/09 A2989 RMK AO2 LTG DSNT E AND W SLP123 60001 T01560094 10217 20156 52002
KHIE 272252Z AUTO 31004KT 10SM CLR 17/09 A2990 RMK AO2 LTG DSNT NE AND E SLP126 T01720094
KHIE 272152Z AUTO 26010G16KT 10SM FEW075 BKN100 BKN120 20/09 A2988 RMK AO2 LTG DSNT W AND NW SLP119 T02000094
KHIE 272052Z AUTO 23006KT 10SM FEW047 FEW100 20/11 A2989 RMK AO2 LTG DSNT NW SLP121 60001 T02000106 56012
KHIE 271952Z AUTO VRB05KT 10SM FEW110 20/10 A2989 RMK AO2 SLP125 T02000100
KHIE 271852Z AUTO 23007KT 10SM SCT100 SCT110 20/09 A2991 RMK AO2 LTG DSNT NE RAE14 SLP129 P0001 T02000094
KHIE 271752Z AUTO VRB06KT 10SM -RA FEW060 BKN095 BKN110 21/09 A2992 RMK AO2 RAB19E28B52 SLP134 P0000 60000 T02060094 10222 20133 58018
KHIE 271652Z AUTO VRB05KT 10SM SCT047 BKN060 BKN070 21/09 A2994 RMK AO2 SLP138 T02060094
KHIE 271552Z AUTO 29007KT 10SM FEW047 SCT060 BKN080 20/10 A2996 RMK AO2 SLP146 T02000100
KHIE 271452Z AUTO 11004KT 10SM CLR 19/11 A2998 RMK AO2 SLP151 T01940111 58008
KHIE 271352Z AUTO 00000KT 10SM CLR 18/12 A2999 RMK AO2 SLP157 T01780117
KHIE 271252Z AUTO 00000KT 10SM CLR 17/11 A3000 RMK AO2 SLP158 T01670111
KHIE 271152Z AUTO 00000KT 10SM CLR 13/10 A3000 RMK AO2 SLP160 70001 T01330100 10133 20072 50014
KHIE 271052Z AUTO 00000KT 10SM CLR 11/09 A3001 RMK AO2 SLP162 T01060089
KHIE 270952Z AUTO 00000KT 10SM FEW095 08/07 A3000 RMK AO2 SLP160 T00830067
KHIE 270852Z AUTO 06003KT 10SM BKN095 08/07 A2996 RMK AO2 PRESFR SLP146 T00830067 58010
KHIE 270752Z AUTO 00000KT 10SM BKN090 07/06 A2998 RMK AO2 SLP154 T00720061
KHIE 270730Z AUTO 07003KT 10SM SCT001 08/06 A2998 RMK AO2 T00780061
KHIE 270712Z AUTO 00000KT 3SM BR OVC001 08/07 A2998 RMK AO2 T00830067
KHIE 270707Z AUTO 00000KT 1 1/4SM BR OVC001 08/07 A2998 RMK AO2 T00830067
KHIE 270652Z AUTO 00000KT 1/4SM FG VV001 08/07 A2998 RMK AO2 SLP154 T00830067
KHIE 270645Z AUTO 00000KT 1SM BR VV001 08/07 A2998 RMK AO2 T00830067
KHIE 270643Z AUTO 00000KT 2 1/2SM BR BKN002 08/07 A2998 RMK AO2 T00830067
KHIE 270622Z AUTO 00000KT 10SM FEW002 08/07 A2999 RMK AO2 T00830067
KHIE 270552Z AUTO 00000KT 7SM CLR 08/07 A2999 RMK AO2 SLP158 60001 T00830067 10178 20083 53004
KHIE 270452Z AUTO 00000KT 10SM CLR 10/08 A2998 RMK AO2 SLP155 T01000078 402170072
KHIE 270352Z AUTO 00000KT 10SM SCT001 11/09 A2998 RMK AO2 SLP153 T01060089
KHIE 270314Z AUTO 07003KT 10SM CLR 11/09 A2998 RMK AO2 T01060094
KHIE 270306Z AUTO 00000KT 2SM BR CLR 11/09 A2998 RMK AO2 T01110094
KHIE 270252Z AUTO 00000KT 6SM BR CLR 12/11 A2998 RMK AO2 SLP153 60001 T01220106 51006
KHIE 270152Z AUTO 00000KT 10SM CLR 14/12 A2997 RMK AO2 RAE18 SLP150 P0001 T01390117
KHIE 270052Z AUTO 24006KT 10SM -RA BKN055 OVC070 17/11 A2997 RMK AO2 RAB50 SLP151 P0000 T01670106
KHIE 262352Z AUTO 00000KT 10SM BKN090 18/11 A2996 RMK AO2 SLP146 T01780106 10217 20178 53007
KHIE 262252Z AUTO 27005KT 10SM OVC080 19/08 A2996 RMK AO2 SLP144 T01940083
KHIE 262152Z AUTO 23005KT 10SM FEW055 21/08 A2994 RMK AO2 SLP139 T02110078
KHIE 262052Z AUTO 28007KT 250V310 10SM SCT060 21/07 A2994 RMK AO2 SLP139 T02110072 58007
KHIE 261952Z AUTO 29007KT 10SM FEW055 SCT080 22/08 A2995 RMK AO2 SLP144 T02170078
KHIE 261852Z AUTO 00000KT 10SM OVC075 19/09 A2996 RMK AO2 SLP146 T01940089
KHIE 261752Z AUTO 32006KT 10SM BKN043 BKN050 OVC070 18/09 A2996 RMK AO2 SLP147 T01830089 10194 20133 58005
KHIE 261652Z AUTO 26006KT 10SM FEW040 OVC060 18/09 A2997 RMK AO2 SLP149 T01830089
KHIE 261552Z AUTO 34006KT 10SM SCT038 OVC050 17/09 A2998 RMK AO2 SLP154 T01720089


Page loaded:  03:38 UTC  |   08:38 PM Pacific  |   09:38 PM Mountain  |   10:38 PM Central  |   11:38 PM Eastern

 

ADVISORIES

FORECASTS

FORECASTS

OBSERVATIONS

USER TOOLS

ABOUT US